createdAt,value
2019-03-09T00:01:15.617Z,7.20
2019-03-09T00:05:23.125Z,7.20
2019-03-09T00:09:31.314Z,7.20
2019-03-09T00:13:41.039Z,7.20
2019-03-09T00:17:47.800Z,7.20
2019-03-09T00:21:55.323Z,7.20
2019-03-09T00:26:11.815Z,7.20
2019-03-09T00:30:28.362Z,7.20
2019-03-09T00:34:35.858Z,7.10
2019-03-09T00:38:44.091Z,7.10
2019-03-09T00:42:52.274Z,7.20
2019-03-09T00:47:00.451Z,7.10
2019-03-09T00:51:08.630Z,7.10
2019-03-09T00:55:16.797Z,7.00
2019-03-09T00:59:25.046Z,7.00
2019-03-09T01:03:33.298Z,6.90
2019-03-09T01:07:41.623Z,6.90
2019-03-09T01:11:50.014Z,6.80
2019-03-09T01:15:58.190Z,6.80
2019-03-09T01:20:08.463Z,6.80
2019-03-09T01:24:16.632Z,6.80
2019-03-09T01:28:25.252Z,6.80
2019-03-09T01:32:33.416Z,6.70
2019-03-09T01:36:41.586Z,6.70
2019-03-09T01:40:49.807Z,6.70
2019-03-09T01:44:58.023Z,6.70
2019-03-09T01:49:06.223Z,6.60
2019-03-09T01:53:14.396Z,6.60
2019-03-09T01:57:22.583Z,6.50
2019-03-09T02:01:30.103Z,6.50
2019-03-09T02:05:38.290Z,6.50
2019-03-09T02:09:46.469Z,6.40
2019-03-09T02:13:53.985Z,6.40
2019-03-09T02:18:02.183Z,6.40
2019-03-09T02:22:10.478Z,6.50
2019-03-09T02:26:17.956Z,6.40
2019-03-09T02:30:25.467Z,6.50
2019-03-09T02:34:32.964Z,6.50
2019-03-09T02:38:46.038Z,6.50
2019-03-09T02:42:54.218Z,6.50
2019-03-09T02:47:02.390Z,6.50
2019-03-09T02:51:09.934Z,6.60
2019-03-09T02:55:18.119Z,6.60
2019-03-09T02:59:26.357Z,6.60
2019-03-09T03:03:34.595Z,6.60
2019-03-09T03:07:42.768Z,6.70
2019-03-09T03:11:51.082Z,6.70
2019-03-09T03:15:59.520Z,6.70
2019-03-09T03:20:08.157Z,6.80
2019-03-09T03:24:15.651Z,6.80
2019-03-09T03:28:24.077Z,6.90
2019-03-09T03:32:34.416Z,7.00
2019-03-09T03:36:42.657Z,7.00
2019-03-09T03:40:50.900Z,7.10
2019-03-09T03:44:59.096Z,7.10
2019-03-09T03:49:07.281Z,7.20
2019-03-09T03:57:38.477Z,7.20
2019-03-09T04:01:47.059Z,7.40
2019-03-09T04:05:54.560Z,7.40
2019-03-09T04:10:02.833Z,7.40
2019-03-09T04:14:11.021Z,7.50
2019-03-09T04:18:19.280Z,7.50
2019-03-09T04:22:27.495Z,7.60
2019-03-09T04:26:34.930Z,7.60
2019-03-09T04:30:42.520Z,7.70
2019-03-09T04:34:50.802Z,7.70
2019-03-09T04:38:58.279Z,7.80
2019-03-09T04:43:06.251Z,7.80
2019-03-09T04:47:13.921Z,7.80
2019-03-09T04:51:22.120Z,7.90
2019-03-09T04:55:29.647Z,7.90
2019-03-09T04:59:37.486Z,7.90
2019-03-09T05:03:44.996Z,7.90
2019-03-09T05:08:01.107Z,8.00
2019-03-09T05:12:09.302Z,8.00
2019-03-09T05:16:17.592Z,8.00
2019-03-09T05:20:25.797Z,7.90
2019-03-09T05:24:34.034Z,8.00
2019-03-09T05:28:42.219Z,8.00
2019-03-09T05:32:50.409Z,8.00
2019-03-09T05:36:58.674Z,8.00
2019-03-09T05:41:06.851Z,8.10
2019-03-09T05:45:15.027Z,8.00
2019-03-09T05:49:23.201Z,8.00
2019-03-09T05:53:30.747Z,8.00
2019-03-09T05:57:38.499Z,8.10
2019-03-09T06:01:46.073Z,8.10
2019-03-09T06:05:55.298Z,8.10
2019-03-09T06:10:03.260Z,8.10
2019-03-09T06:14:10.880Z,8.10
2019-03-09T06:18:19.423Z,8.00
2019-03-09T06:22:26.935Z,8.00
2019-03-09T06:26:35.097Z,8.00
2019-03-09T06:30:42.646Z,8.10
2019-03-09T06:34:50.124Z,8.30
2019-03-09T06:39:00.034Z,8.40
2019-03-09T06:43:08.229Z,8.50
2019-03-09T06:47:16.676Z,8.50
2019-03-09T06:51:24.190Z,8.50
2019-03-09T06:55:32.379Z,8.50
2019-03-09T06:59:40.558Z,8.60
2019-03-09T07:03:48.831Z,8.60
2019-03-09T07:07:57.010Z,8.60
2019-03-09T07:12:05.983Z,8.60
2019-03-09T07:16:13.511Z,8.70
2019-03-09T07:20:21.776Z,8.80
2019-03-09T07:24:30.063Z,8.80
2019-03-09T07:28:37.540Z,8.90
2019-03-09T07:32:45.754Z,9.00
2019-03-09T07:36:53.250Z,9.00
2019-03-09T07:41:01.531Z,9.00
2019-03-09T07:45:11.390Z,9.00
2019-03-09T07:49:19.565Z,9.10
2019-03-09T07:53:27.831Z,9.10
2019-03-09T07:57:36.013Z,9.20
2019-03-09T08:01:44.215Z,9.20
2019-03-09T08:05:52.411Z,9.10
2019-03-09T08:10:00.683Z,9.20
2019-03-09T08:14:08.224Z,9.20
2019-03-09T08:18:16.949Z,9.20
2019-03-09T08:22:26.771Z,9.30
2019-03-09T08:26:34.248Z,9.30
2019-03-09T08:30:42.446Z,9.40
2019-03-09T08:34:50.882Z,9.40
2019-03-09T08:38:58.428Z,9.50
2019-03-09T08:43:06.651Z,9.50
2019-03-09T08:47:14.867Z,9.70
2019-03-09T08:51:23.109Z,9.70
2019-03-09T08:55:30.802Z,9.70
2019-03-09T08:59:39.101Z,9.80
2019-03-09T09:03:47.367Z,10.00
2019-03-09T09:07:55.577Z,10.10
2019-03-09T09:12:03.770Z,10.20
2019-03-09T09:16:11.383Z,10.20
2019-03-09T09:20:20.304Z,10.20
2019-03-09T09:24:28.533Z,10.30
2019-03-09T09:28:36.722Z,10.40
2019-03-09T09:32:44.967Z,10.50
2019-03-09T09:36:53.277Z,10.50
2019-03-09T09:41:01.489Z,10.60
2019-03-09T09:53:26.115Z,11.50
2019-03-09T09:57:34.368Z,11.60
2019-03-09T10:01:42.895Z,11.90
2019-03-09T10:05:51.201Z,12.00
2019-03-09T10:09:59.395Z,12.00
2019-03-09T10:14:07.647Z,12.00
2019-03-09T10:18:15.966Z,12.00
2019-03-09T10:22:24.231Z,11.90
2019-03-09T10:26:32.497Z,11.90
2019-03-09T10:30:40.735Z,11.80
2019-03-09T10:34:49.058Z,12.00
2019-03-09T10:38:57.312Z,12.00
2019-03-09T10:43:05.539Z,12.20
2019-03-09T10:47:13.829Z,12.20
2019-03-09T10:51:22.043Z,12.30
2019-03-09T10:55:30.352Z,12.30
2019-03-09T10:59:38.571Z,12.30
2019-03-09T11:03:46.779Z,12.40
2019-03-09T11:07:54.324Z,12.40
2019-03-09T11:12:02.560Z,12.20
2019-03-09T11:16:10.769Z,12.20
2019-03-09T11:20:19.066Z,12.10
2019-03-09T11:24:27.262Z,12.30
2019-03-09T11:28:35.541Z,12.20
2019-03-09T11:32:43.774Z,12.20
2019-03-09T11:36:52.012Z,12.10
2019-03-09T11:41:00.933Z,12.00
2019-03-09T11:45:08.896Z,12.10
2019-03-09T11:49:17.155Z,12.20
2019-03-09T11:53:25.376Z,12.30
2019-03-09T11:57:33.644Z,12.40
2019-03-09T12:01:41.143Z,12.60
2019-03-09T12:05:49.380Z,12.70
2019-03-09T12:09:57.619Z,12.80
2019-03-09T12:18:12.438Z,12.50
2019-03-09T12:22:20.685Z,12.60
2019-03-09T12:26:29.276Z,13.10
2019-03-09T12:30:37.567Z,13.40
2019-03-09T12:34:45.772Z,13.80
2019-03-09T12:38:53.956Z,13.90
2019-03-09T12:43:02.199Z,14.10
2019-03-09T12:47:10.391Z,14.00
2019-03-09T12:51:18.658Z,14.30
2019-03-09T12:55:26.887Z,13.80
2019-03-09T12:59:35.097Z,13.90
2019-03-09T13:03:43.335Z,13.90
2019-03-09T13:07:51.564Z,13.60
2019-03-09T13:11:59.763Z,13.20
2019-03-09T13:16:07.996Z,13.10
2019-03-09T13:20:16.229Z,13.10
2019-03-09T13:24:24.509Z,13.00
2019-03-09T13:28:32.694Z,12.70
2019-03-09T13:32:40.996Z,12.30
2019-03-09T13:36:49.203Z,12.20
2019-03-09T13:40:57.391Z,12.20
2019-03-09T13:45:06.024Z,12.10
2019-03-09T13:49:14.226Z,12.10
2019-03-09T13:53:22.515Z,12.30
2019-03-09T13:57:30.816Z,12.30
2019-03-09T14:01:39.056Z,12.10
2019-03-09T14:05:47.313Z,11.70
2019-03-09T14:09:55.504Z,11.50
2019-03-09T14:14:03.703Z,11.50
2019-03-09T14:18:11.917Z,11.50
2019-03-09T14:22:20.131Z,11.50
2019-03-09T14:26:28.400Z,11.50
2019-03-09T14:30:36.607Z,11.50
2019-03-09T14:34:44.828Z,11.30
2019-03-09T14:38:53.051Z,11.10
2019-03-09T14:43:01.326Z,11.30
2019-03-09T14:47:09.522Z,11.40
2019-03-09T14:51:17.726Z,11.50
2019-03-09T14:55:25.955Z,11.50
2019-03-09T14:59:34.158Z,11.60
2019-03-09T15:03:42.362Z,11.70
2019-03-09T15:07:50.627Z,11.70
2019-03-09T15:11:58.843Z,11.60
2019-03-09T15:16:07.039Z,11.40
2019-03-09T15:20:15.322Z,11.10
2019-03-09T15:24:23.546Z,11.00
2019-03-09T15:28:31.760Z,10.90
2019-03-09T15:32:39.984Z,10.90
2019-03-09T15:36:48.253Z,11.00
2019-03-09T15:40:56.926Z,10.80
2019-03-09T15:45:05.477Z,10.80
2019-03-09T15:49:13.842Z,10.90
2019-03-09T15:53:23.496Z,10.60
2019-03-09T15:57:31.987Z,10.40
2019-03-09T16:01:39.685Z,10.50
2019-03-09T16:05:48.046Z,10.70
2019-03-09T16:09:55.640Z,10.70
2019-03-09T16:14:03.933Z,10.70
2019-03-09T16:18:12.279Z,10.80
2019-03-09T16:22:20.548Z,10.80
2019-03-09T16:26:29.072Z,10.60
2019-03-09T16:30:37.315Z,10.50
2019-03-09T16:34:45.548Z,10.40
2019-03-09T16:38:53.856Z,10.30
2019-03-09T16:43:02.065Z,10.20
2019-03-09T16:47:10.302Z,10.20
2019-03-09T16:51:18.517Z,10.10
2019-03-09T16:55:26.815Z,10.00
2019-03-09T16:59:35.042Z,10.10
2019-03-09T17:03:43.246Z,10.10
2019-03-09T17:07:51.545Z,10.10
2019-03-09T17:11:59.731Z,10.00
2019-03-09T17:20:08.496Z,10.00
2019-03-09T17:24:16.733Z,10.00
2019-03-09T17:28:24.951Z,10.00
2019-03-09T17:32:33.167Z,10.10
2019-03-09T17:36:41.403Z,10.10
2019-03-09T17:40:48.915Z,10.10
2019-03-09T17:44:57.135Z,10.00
2019-03-09T17:49:05.332Z,10.00
2019-03-09T17:53:14.128Z,10.00
2019-03-09T17:57:21.769Z,10.00
2019-03-09T18:01:30.342Z,9.90
2019-03-09T18:05:38.527Z,9.90
2019-03-09T18:09:46.750Z,9.90
2019-03-09T18:13:54.949Z,9.90
2019-03-09T18:18:03.202Z,9.90
2019-03-09T18:22:11.450Z,9.90
2019-03-09T18:26:18.956Z,10.00
2019-03-09T18:30:27.148Z,9.90
2019-03-09T18:34:34.682Z,9.90
2019-03-09T18:38:42.925Z,9.80
2019-03-09T18:42:51.281Z,9.80
2019-03-09T18:46:59.544Z,9.70
2019-03-09T18:51:07.738Z,9.70
2019-03-09T18:55:16.109Z,9.70
2019-03-09T18:59:23.665Z,9.70
2019-03-09T19:03:31.950Z,9.70
2019-03-09T19:07:40.647Z,9.60
2019-03-09T19:11:48.151Z,9.60
2019-03-09T19:15:56.563Z,9.60
2019-03-09T19:20:05.380Z,9.60
2019-03-09T19:24:13.598Z,9.40
2019-03-09T19:28:21.848Z,9.40
2019-03-09T19:32:30.107Z,9.30
2019-03-09T19:36:38.360Z,9.30
2019-03-09T19:40:46.593Z,9.30
2019-03-09T19:44:54.851Z,9.20
2019-03-09T19:49:03.061Z,9.20
2019-03-09T19:53:12.373Z,9.20
2019-03-09T19:57:20.582Z,9.20
2019-03-09T20:01:28.789Z,9.20
2019-03-09T20:05:37.003Z,9.10
2019-03-09T20:09:45.207Z,9.10
2019-03-09T20:13:53.412Z,9.10
2019-03-09T20:18:01.686Z,9.10
2019-03-09T20:22:09.873Z,9.00
2019-03-09T20:26:18.087Z,9.00
2019-03-09T20:30:26.319Z,9.00
2019-03-09T20:34:34.569Z,9.00
2019-03-09T20:38:42.850Z,9.00
2019-03-09T20:42:51.344Z,8.90
2019-03-09T20:46:59.582Z,8.90
2019-03-09T20:51:07.839Z,8.90
2019-03-09T20:55:15.669Z,8.90
2019-03-09T21:03:31.856Z,8.90
2019-03-09T21:07:40.130Z,8.90
2019-03-09T21:11:48.320Z,8.90
2019-03-09T21:15:56.537Z,8.90
2019-03-09T21:20:05.027Z,8.90
2019-03-09T21:24:13.643Z,8.80
2019-03-09T21:28:21.898Z,8.80
2019-03-09T21:32:30.694Z,8.70
2019-03-09T21:36:38.891Z,8.70
2019-03-09T21:40:47.107Z,8.60
2019-03-09T21:44:55.434Z,8.60
2019-03-09T21:49:03.692Z,8.60
2019-03-09T21:53:11.937Z,8.60
2019-03-09T21:57:20.171Z,8.50
2019-03-09T22:01:27.693Z,8.50
2019-03-09T22:05:35.898Z,8.50
2019-03-09T22:09:44.432Z,8.50
2019-03-09T22:13:52.623Z,8.50
2019-03-09T22:18:00.832Z,8.50
2019-03-09T22:22:09.097Z,8.40
2019-03-09T22:26:17.297Z,8.40
2019-03-09T22:30:25.522Z,8.30
2019-03-09T22:34:33.748Z,8.30
2019-03-09T22:38:41.979Z,8.30
2019-03-09T22:42:50.243Z,8.30
2019-03-09T22:46:58.475Z,8.20
2019-03-09T22:51:06.746Z,8.20
2019-03-09T22:55:14.997Z,8.20
2019-03-09T22:59:23.254Z,8.20
2019-03-09T23:03:31.540Z,8.10
2019-03-09T23:07:39.755Z,8.10
2019-03-09T23:11:48.052Z,8.10
2019-03-09T23:15:56.254Z,8.10
2019-03-09T23:20:05.039Z,8.10
2019-03-09T23:24:13.303Z,8.10
2019-03-09T23:28:21.621Z,8.10
2019-03-09T23:32:29.843Z,8.00
2019-03-09T23:36:38.103Z,8.00
2019-03-09T23:40:46.323Z,8.00
2019-03-09T23:44:54.537Z,7.90
2019-03-09T23:49:02.816Z,7.90
2019-03-09T23:53:11.120Z,7.90
2019-03-09T23:57:19.345Z,7.90
